KMHL/MHL METAR and TAF weather

Enter ICAO airport designator
Station Type Date Time Source
KMHL METAR 2021/09/25 03:15 UTC NOAA

KMHL 250315Z AUTO 35006KT 10SM RA SCT020 SCT024 BKN029 15/13 A3008 RMK AO2


Station Type Date Time Source
KMHL Decoded METAR 2021/09/25 03:15 UTC NOAA

Station name not available
Sep 24, 2021 - 11:15 PM EDT / 2021.09.25 0315 UTC
Wind: from the N (350 degrees) at 7 MPH (6 KT):0
Visibility: 10 mile(s):0
Sky conditions: mostly cloudy
Weather: rain
Temperature: 59 F (15 C)
Dew Point: 55 F (13 C)
Relative Humidity: 87%
Pressure (altimeter): 30.08 in. Hg (1018 hPa)
ob: KMHL 250315Z AUTO 35006KT 10SM RA SCT020 SCT024 BKN029 15/13 A3008 RMK AO2
cycle: 3

Station Type Date Time Source
KMHL TAF UTC NOAA

Error!

Example: see airport list